Time;durP1;ratioP1;P1;durP2;ratioP2;P2;SDS_P1;SDS_P2;PMS_P1;PMS_P2;Temp;Humidity;BMP_temperature;BMP_pressure;BME280_temperature;BME280_humidity;BME280_pressure;Samples;Min_cycle;Max_cycle;Signal;HPM_P1;HPM_P2
2021/03/13 00:00:53;;;;;;;1.43;0.70;;;;;;;;;;6158170;23;20173;-83
2021/03/13 00:03:20;;;;;;;0.50;0.50;;;;;;;;;;6157410;23;20173;-85
2021/03/13 00:05:47;;;;;;;1.90;0.87;;;;;;;;;;6157358;23;20190;-83
2021/03/13 00:08:13;;;;;;;0.87;0.60;;;;;;;;;;6157469;23;20240;-83
2021/03/13 00:10:40;;;;;;;0.60;0.60;;;;;;;;;;6157511;23;20180;-84
2021/03/13 00:13:07;;;;;;;1.13;0.80;;;;;;;;;;6157065;23;20205;-82
2021/03/13 00:15:33;;;;;;;1.37;0.63;;;;;;;;;;6157575;23;20177;-84
2021/03/13 00:18:00;;;;;;;1.47;0.70;;;;;;;;;;6157553;23;20173;-83
2021/03/13 00:20:29;;;;;;;0.70;0.70;;;;;;;;;;6157342;23;20181;-81
2021/03/13 00:22:55;;;;;;;0.90;0.70;;;;;;;;;;6157558;23;20173;-84
2021/03/13 00:25:22;;;;;;;0.73;0.73;;;;;;;;;;6131555;23;20189;-83
2021/03/13 00:27:48;;;;;;;0.97;0.53;;;;;;;;;;6157587;23;20177;-82
2021/03/13 00:30:16;;;;;;;0.80;0.60;;;;;;;;;;6157210;23;20420;-82
2021/03/13 00:32:42;;;;;;;0.50;0.50;;;;;;;;;;6157577;23;20173;-81
2021/03/13 00:35:09;;;;;;;0.60;0.57;;;;;;;;;;6157057;23;20173;-82
2021/03/13 00:37:36;;;;;;;0.37;0.37;;;;;;;;;;6157761;23;20297;-81
2021/03/13 00:40:02;;;;;;;0.40;0.40;;;;;;;;;;6158073;23;20177;-82
2021/03/13 00:42:29;;;;;;;0.80;0.60;;;;;;;;;;6131750;23;20173;-85
2021/03/13 00:44:55;;;;;;;0.97;0.60;;;;;;;;;;6157262;23;20196;-82
2021/03/13 00:47:21;;;;;;;1.20;0.40;;;;;;;;;;6158167;23;20184;-82
2021/03/13 00:49:47;;;;;;;0.70;0.67;;;;;;;;;;6131514;23;20180;-84
2021/03/13 00:52:13;;;;;;;0.73;0.40;;;;;;;;;;6131710;23;20178;-83
2021/03/13 00:54:40;;;;;;;1.07;0.50;;;;;;;;;;6157213;23;20177;-84
2021/03/13 00:57:06;;;;;;;0.67;0.60;;;;;;;;;;6158059;23;20184;-84
2021/03/13 00:59:32;;;;;;;0.73;0.50;;;;;;;;;;6157127;23;20181;-86
2021/03/13 01:01:58;;;;;;;0.97;0.50;;;;;;;;;;6157571;23;20174;-84
2021/03/13 01:04:25;;;;;;;0.87;0.70;;;;;;;;;;6157665;23;20443;-83
2021/03/13 01:06:51;;;;;;;0.90;0.57;;;;;;;;;;6157934;23;20173;-83
2021/03/13 01:09:17;;;;;;;0.67;0.67;;;;;;;;;;6156967;23;20173;-83
2021/03/13 01:11:44;;;;;;;0.53;0.53;;;;;;;;;;6157069;23;20180;-84
2021/03/13 01:14:10;;;;;;;0.77;0.50;;;;;;;;;;6157069;23;20514;-83
2021/03/13 01:16:37;;;;;;;0.57;0.53;;;;;;;;;;6157309;23;20184;-85
2021/03/13 01:19:03;;;;;;;1.60;0.80;;;;;;;;;;6159183;23;20432;-85
2021/03/13 01:21:29;;;;;;;0.53;0.50;;;;;;;;;;6159298;23;20177;-84
2021/03/13 01:23:55;;;;;;;2.00;0.73;;;;;;;;;;6159312;23;20184;-84
2021/03/13 01:26:21;;;;;;;1.27;0.70;;;;;;;;;;6159331;23;20451;-85
2021/03/13 01:28:48;;;;;;;0.83;0.80;;;;;;;;;;6133481;23;20180;-82
2021/03/13 01:31:14;;;;;;;2.00;0.97;;;;;;;;;;6158852;23;20173;-83
2021/03/13 01:33:41;;;;;;;1.07;0.63;;;;;;;;;;6159670;23;20443;-84
2021/03/13 01:36:07;;;;;;;0.70;0.70;;;;;;;;;;6158237;23;20555;-83
2021/03/13 01:38:33;;;;;;;1.70;0.97;;;;;;;;;;6159600;23;20173;-84
2021/03/13 01:41:00;;;;;;;0.87;0.87;;;;;;;;;;6158858;23;20173;-85
2021/03/13 01:43:26;;;;;;;1.73;1.00;;;;;;;;;;6158886;23;20177;-83
2021/03/13 01:45:53;;;;;;;0.80;0.80;;;;;;;;;;6158749;23;20197;-84
2021/03/13 01:48:20;;;;;;;0.90;0.90;;;;;;;;;;6133253;23;20173;-85
2021/03/13 01:50:46;;;;;;;1.30;0.70;;;;;;;;;;6159218;23;20177;-83
2021/03/13 01:53:13;;;;;;;0.90;0.73;;;;;;;;;;6158698;23;20174;-82
2021/03/13 01:55:39;;;;;;;1.13;0.97;;;;;;;;;;6133480;23;20206;-84
2021/03/13 01:58:05;;;;;;;0.97;0.80;;;;;;;;;;6158766;23;20173;-84
2021/03/13 02:00:31;;;;;;;0.87;0.60;;;;;;;;;;6158651;23;20180;-84
2021/03/13 02:02:58;;;;;;;2.10;1.20;;;;;;;;;;6158932;23;20440;-83
2021/03/13 02:05:26;;;;;;;0.70;0.70;;;;;;;;;;6158945;23;20201;-84
2021/03/13 02:07:56;;;;;;;1.13;0.83;;;;;;;;;;6158901;23;20177;-84
2021/03/13 02:10:27;;;;;;;1.30;1.13;;;;;;;;;;6158826;23;20173;-84
2021/03/13 02:12:59;;;;;;;1.00;0.90;;;;;;;;;;6158763;23;20200;-82
2021/03/13 02:15:28;;;;;;;1.40;1.10;;;;;;;;;;6158953;23;20547;-84
2021/03/13 02:17:58;;;;;;;2.30;1.23;;;;;;;;;;6158564;23;20826;-82
2021/03/13 02:20:52;;;;;;;0.80;0.80;;;;;;;;;;6158900;23;20173;-84
2021/03/13 02:23:20;;;;;;;0.87;0.87;;;;;;;;;;6158262;23;20173;-82
2021/03/13 02:25:55;;;;;;;1.47;1.37;;;;;;;;;;6132774;23;20610;-83
2021/03/13 02:28:28;;;;;;;1.40;1.30;;;;;;;;;;6157617;23;20173;-82
2021/03/13 02:30:56;;;;;;;4.10;2.20;;;;;;;;;;6158496;23;20177;-82
2021/03/13 02:33:24;;;;;;;3.00;1.57;;;;;;;;;;6158333;23;20257;-82
2021/03/13 02:35:54;;;;;;;1.10;0.73;;;;;;;;;;6133005;23;20169;-82
2021/03/13 02:38:22;;;;;;;0.70;0.70;;;;;;;;;;6158534;23;20550;-83
2021/03/13 02:40:49;;;;;;;0.70;0.70;;;;;;;;;;6132999;23;20174;-83
2021/03/13 02:43:16;;;;;;;0.67;0.40;;;;;;;;;;6157879;23;20180;-83
2021/03/13 02:45:45;;;;;;;0.70;0.50;;;;;;;;;;6158520;23;20194;-82
2021/03/13 02:48:13;;;;;;;0.57;0.50;;;;;;;;;;6157997;23;20177;-82
2021/03/13 02:50:40;;;;;;;0.80;0.60;;;;;;;;;;6158143;23;20178;-81
2021/03/13 02:53:07;;;;;;;1.30;0.70;;;;;;;;;;6157744;23;20577;-82
2021/03/13 02:55:33;;;;;;;1.17;0.67;;;;;;;;;;6158426;23;20466;-83
2021/03/13 02:58:00;;;;;;;2.00;0.80;;;;;;;;;;6157581;23;20173;-83
2021/03/13 03:00:27;;;;;;;1.43;0.60;;;;;;;;;;6157992;23;20182;-82
2021/03/13 03:02:55;;;;;;;0.57;0.57;;;;;;;;;;6158331;23;20174;-83
2021/03/13 03:05:23;;;;;;;0.57;0.57;;;;;;;;;;6132538;23;20597;-83
2021/03/13 03:07:50;;;;;;;3.00;0.80;;;;;;;;;;6157622;23;20173;-83
2021/03/13 03:10:18;;;;;;;1.53;0.70;;;;;;;;;;6158315;23;20188;-83
2021/03/13 03:12:46;;;;;;;0.77;0.77;;;;;;;;;;6157776;23;20179;-83
2021/03/13 03:15:13;;;;;;;1.70;0.70;;;;;;;;;;6132569;23;20176;-84
2021/03/13 03:17:40;;;;;;;1.47;0.80;;;;;;;;;;6158180;23;20174;-83
2021/03/13 03:20:07;;;;;;;1.87;1.00;;;;;;;;;;6158388;23;20180;-83
2021/03/13 03:22:34;;;;;;;1.03;0.60;;;;;;;;;;6157903;23;20220;-83
2021/03/13 03:25:01;;;;;;;1.43;0.70;;;;;;;;;;6158109;23;20177;-84
2021/03/13 03:27:27;;;;;;;1.33;0.60;;;;;;;;;;6158268;23;20185;-83
2021/03/13 03:29:54;;;;;;;0.70;0.50;;;;;;;;;;6157810;23;20177;-83
2021/03/13 03:32:20;;;;;;;3.60;0.80;;;;;;;;;;6132167;23;20172;-83
2021/03/13 03:34:46;;;;;;;0.50;0.50;;;;;;;;;;6158372;23;20184;-82
2021/03/13 03:37:12;;;;;;;0.77;0.30;;;;;;;;;;6158275;23;20169;-82
2021/03/13 03:39:39;;;;;;;0.90;0.27;;;;;;;;;;6158264;23;20177;-83
2021/03/13 03:42:06;;;;;;;0.50;0.27;;;;;;;;;;6157642;23;20180;-82
2021/03/13 03:44:37;;;;;;;0.67;0.37;;;;;;;;;;6157891;23;20455;-82
2021/03/13 03:47:04;;;;;;;0.67;0.47;;;;;;;;;;6157887;23;20574;-84
2021/03/13 03:49:31;;;;;;;0.60;0.33;;;;;;;;;;6131831;23;20180;-82
2021/03/13 03:51:58;;;;;;;0.60;0.40;;;;;;;;;;6157752;23;20483;-84
2021/03/13 03:54:25;;;;;;;1.60;0.57;;;;;;;;;;6131226;23;20176;-84
2021/03/13 03:56:52;;;;;;;0.40;0.40;;;;;;;;;;6158064;23;20173;-84
2021/03/13 03:59:19;;;;;;;0.93;0.60;;;;;;;;;;6157058;23;20188;-83
2021/03/13 04:01:46;;;;;;;0.77;0.40;;;;;;;;;;6157666;23;20177;-84
2021/03/13 04:04:14;;;;;;;1.13;0.43;;;;;;;;;;6157592;23;20559;-83
2021/03/13 04:06:40;;;;;;;0.70;0.47;;;;;;;;;;6132009;23;20492;-83
2021/03/13 04:09:07;;;;;;;0.60;0.33;;;;;;;;;;6131480;23;20173;-82
2021/03/13 04:11:33;;;;;;;0.90;0.60;;;;;;;;;;6131687;23;20177;-82
2021/03/13 04:14:00;;;;;;;0.40;0.40;;;;;;;;;;6156957;23;20475;-80
2021/03/13 04:16:27;;;;;;;2.47;0.80;;;;;;;;;;6157402;23;20173;-80
2021/03/13 04:18:53;;;;;;;1.10;0.70;;;;;;;;;;6130982;23;20177;-84
2021/03/13 04:21:20;;;;;;;1.57;0.60;;;;;;;;;;6158066;23;20180;-81
2021/03/13 04:23:47;;;;;;;0.87;0.70;;;;;;;;;;6157575;23;20176;-81
2021/03/13 04:26:14;;;;;;;4.47;0.90;;;;;;;;;;6131974;23;20209;-80
2021/03/13 04:28:40;;;;;;;2.47;1.10;;;;;;;;;;6157544;23;20691;-81
2021/03/13 04:31:08;;;;;;;2.60;1.03;;;;;;;;;;6157978;23;20621;-82
2021/03/13 04:33:35;;;;;;;3.53;0.90;;;;;;;;;;6157729;23;20173;-84
2021/03/13 04:36:01;;;;;;;1.73;0.70;;;;;;;;;;6158105;23;20157;-81
2021/03/13 04:38:28;;;;;;;2.63;1.07;;;;;;;;;;6157622;23;20173;-82
2021/03/13 04:40:54;;;;;;;4.20;1.20;;;;;;;;;;6157136;23;20173;-80
2021/03/13 04:43:22;;;;;;;1.87;1.00;;;;;;;;;;6157481;23;20173;-83
2021/03/13 04:45:49;;;;;;;1.87;0.97;;;;;;;;;;6157382;23;20200;-83
2021/03/13 04:48:16;;;;;;;3.03;0.90;;;;;;;;;;6131722;23;20237;-84
2021/03/13 04:50:42;;;;;;;2.10;1.10;;;;;;;;;;6157603;23;20257;-83
2021/03/13 04:53:08;;;;;;;3.73;1.27;;;;;;;;;;6157860;23;20220;-79
2021/03/13 04:55:35;;;;;;;2.40;1.13;;;;;;;;;;6159470;23;20169;-78
2021/03/13 04:58:01;;;;;;;2.03;1.13;;;;;;;;;;6158819;23;20180;-80
2021/03/13 05:00:27;;;;;;;2.50;0.80;;;;;;;;;;6158675;23;20181;-77
2021/03/13 05:02:53;;;;;;;3.20;1.07;;;;;;;;;;6158734;23;20173;-80
2021/03/13 05:05:20;;;;;;;3.73;1.00;;;;;;;;;;6159410;23;20555;-84
2021/03/13 05:07:46;;;;;;;3.13;1.47;;;;;;;;;;6159434;23;20185;-83
2021/03/13 05:10:12;;;;;;;2.60;1.20;;;;;;;;;;6159720;23;20573;-82
2021/03/13 05:12:38;;;;;;;3.50;1.30;;;;;;;;;;6132660;23;20177;-87
2021/03/13 05:15:06;;;;;;;2.47;0.87;;;;;;;;;;6159736;23;20174;-83
2021/03/13 05:17:32;;;;;;;3.87;1.10;;;;;;;;;;6159080;23;20173;-86
2021/03/13 05:19:58;;;;;;;4.03;1.40;;;;;;;;;;6133576;23;20173;-81
2021/03/13 05:22:25;;;;;;;2.57;1.10;;;;;;;;;;6159603;23;20444;-83
2021/03/13 05:24:51;;;;;;;2.50;2.00;;;;;;;;;;6159559;23;20180;-82
2021/03/13 05:27:18;;;;;;;3.37;1.10;;;;;;;;;;6159163;23;20189;-84
2021/03/13 05:29:44;;;;;;;6.20;1.30;;;;;;;;;;6161130;23;20174;-84
2021/03/13 05:32:10;;;;;;;1.37;0.80;;;;;;;;;;6159982;23;20177;-83
2021/03/13 05:34:36;;;;;;;2.17;1.13;;;;;;;;;;6159477;23;20739;-85
2021/03/13 05:37:02;;;;;;;1.70;0.77;;;;;;;;;;6133252;23;20178;-86
2021/03/13 05:39:29;;;;;;;2.97;1.30;;;;;;;;;;6159076;23;20184;-86
2021/03/13 05:41:55;;;;;;;2.03;1.00;;;;;;;;;;6133159;23;20173;-84
2021/03/13 05:44:22;;;;;;;2.40;1.00;;;;;;;;;;6159111;23;20178;-85
2021/03/13 05:46:48;;;;;;;3.20;1.20;;;;;;;;;;6158714;23;20189;-86
2021/03/13 05:49:14;;;;;;;5.40;1.10;;;;;;;;;;6159054;23;20177;-85
2021/03/13 05:51:43;;;;;;;3.43;1.40;;;;;;;;;;6159112;23;20184;-84
2021/03/13 05:54:09;;;;;;;1.87;1.10;;;;;;;;;;6159281;23;20487;-86
2021/03/13 05:56:36;;;;;;;1.30;0.97;;;;;;;;;;6158220;23;20169;-84
2021/03/13 05:59:02;;;;;;;3.23;1.20;;;;;;;;;;6157770;23;20177;-84
2021/03/13 06:01:29;;;;;;;3.07;1.03;;;;;;;;;;6158060;23;20417;-85
2021/03/13 06:03:56;;;;;;;4.27;1.13;;;;;;;;;;6158313;23;20173;-86
2021/03/13 06:06:23;;;;;;;4.20;1.20;;;;;;;;;;6132889;23;20213;-89
2021/03/13 06:08:49;;;;;;;2.63;1.17;;;;;;;;;;6159840;23;20173;-85
2021/03/13 06:11:16;;;;;;;3.53;0.90;;;;;;;;;;6160446;23;20173;-91
2021/03/13 06:13:43;;;;;;;3.13;0.97;;;;;;;;;;6158773;23;20205;-81
2021/03/13 06:16:09;;;;;;;2.03;1.07;;;;;;;;;;6158918;23;20169;-85
2021/03/13 06:18:56;;;;;;;1.73;0.90;;;;;;;;;;6158434;23;20578;-85
2021/03/13 06:21:23;;;;;;;3.37;0.80;;;;;;;;;;6158940;23;20184;-84
2021/03/13 06:23:53;;;;;;;2.63;0.80;;;;;;;;;;6158331;23;20178;-83
2021/03/13 06:26:19;;;;;;;2.47;0.80;;;;;;;;;;6159102;23;20185;-83
2021/03/13 06:28:46;;;;;;;2.63;1.17;;;;;;;;;;6158817;23;20173;-83
2021/03/13 06:31:13;;;;;;;1.80;1.10;;;;;;;;;;6158983;23;20177;-83
2021/03/13 06:33:40;;;;;;;1.80;1.03;;;;;;;;;;6159358;23;20185;-83
2021/03/13 06:36:08;;;;;;;3.23;1.27;;;;;;;;;;6158753;23;20169;-84
2021/03/13 06:38:35;;;;;;;1.33;0.80;;;;;;;;;;6158350;23;20177;-83
2021/03/13 06:41:10;;;;;;;5.00;1.30;;;;;;;;;;6132705;23;20173;-83
2021/03/13 06:43:36;;;;;;;2.00;0.80;;;;;;;;;;6158372;23;20173;-83
2021/03/13 06:46:05;;;;;;;2.30;0.80;;;;;;;;;;6158798;23;20193;-83
2021/03/13 06:48:32;;;;;;;3.43;1.00;;;;;;;;;;6159055;23;20181;-82
2021/03/13 06:51:16;;;;;;;3.70;0.87;;;;;;;;;;6158413;23;20173;-81
2021/03/13 06:53:43;;;;;;;3.17;1.13;;;;;;;;;;6158482;23;20173;-82
2021/03/13 06:56:09;;;;;;;3.13;1.17;;;;;;;;;;6158470;23;20420;-84
2021/03/13 06:58:36;;;;;;;3.30;0.70;;;;;;;;;;6158184;23;20220;-86
2021/03/13 07:01:04;;;;;;;4.07;1.20;;;;;;;;;;6158824;23;20472;-82
2021/03/13 07:03:30;;;;;;;1.83;0.90;;;;;;;;;;6157890;23;20174;-86
2021/03/13 07:05:56;;;;;;;2.20;1.17;;;;;;;;;;6157073;23;20181;-82
2021/03/13 07:08:23;;;;;;;5.03;1.30;;;;;;;;;;6158034;23;20173;-82
2021/03/13 07:10:50;;;;;;;2.77;1.03;;;;;;;;;;6157649;23;20451;-84
2021/03/13 07:13:32;;;;;;;3.47;1.42;;;;;;;;;;6156564;23;21074;-82
2021/03/13 07:16:13;;;;;;;3.97;1.40;;;;;;;;;;6158069;23;20365;-82
2021/03/13 07:18:40;;;;;;;1.23;0.57;;;;;;;;;;6156994;23;20180;-84
2021/03/13 07:21:06;;;;;;;1.87;0.90;;;;;;;;;;6158030;23;20173;-83
2021/03/13 07:23:32;;;;;;;1.80;0.90;;;;;;;;;;6157606;23;20177;-83
2021/03/13 07:25:58;;;;;;;1.90;1.00;;;;;;;;;;6158228;23;20180;-83
2021/03/13 07:28:25;;;;;;;1.87;0.70;;;;;;;;;;6158049;23;20416;-86
2021/03/13 07:30:51;;;;;;;2.20;0.80;;;;;;;;;;6158015;23;20455;-82
2021/03/13 07:33:18;;;;;;;3.60;0.97;;;;;;;;;;6157812;23;20177;-82
2021/03/13 07:35:48;;;;;;;3.83;0.93;;;;;;;;;;6157829;23;20216;-84
2021/03/13 07:38:15;;;;;;;6.13;0.97;;;;;;;;;;6158211;23;20169;-82
2021/03/13 07:40:43;;;;;;;2.77;1.20;;;;;;;;;;6158225;23;20184;-82
2021/03/13 07:43:10;;;;;;;1.20;0.80;;;;;;;;;;6157621;23;20174;-82
2021/03/13 07:45:36;;;;;;;0.90;0.90;;;;;;;;;;6158169;23;20177;-80
2021/03/13 07:48:03;;;;;;;1.77;0.90;;;;;;;;;;6157765;23;20185;-84
2021/03/13 07:50:29;;;;;;;1.23;0.80;;;;;;;;;;6157455;23;20184;-82
2021/03/13 07:52:56;;;;;;;3.77;0.93;;;;;;;;;;6157526;23;20173;-81
2021/03/13 07:55:24;;;;;;;4.37;1.00;;;;;;;;;;6157282;23;20562;-83
2021/03/13 07:57:51;;;;;;;4.10;1.27;;;;;;;;;;6157839;23;20180;-84
2021/03/13 08:00:18;;;;;;;1.83;0.97;;;;;;;;;;6157396;23;20211;-82
2021/03/13 08:02:44;;;;;;;1.77;0.90;;;;;;;;;;6157744;23;20578;-83
2021/03/13 08:05:14;;;;;;;1.80;0.80;;;;;;;;;;6157915;23;20184;-83
2021/03/13 08:07:54;;;;;;;2.73;1.03;;;;;;;;;;6157376;23;20189;-82
2021/03/13 08:10:44;;;;;;;3.00;0.90;;;;;;;;;;6158268;23;20215;-82
2021/03/13 08:13:11;;;;;;;2.77;0.90;;;;;;;;;;6121161;23;20232;-82
2021/03/13 08:15:46;;;;;;;1.40;0.93;;;;;;;;;;6157429;23;20188;-82
2021/03/13 08:18:27;;;;;;;1.70;0.80;;;;;;;;;;6157542;23;20176;-82
2021/03/13 08:20:53;;;;;;;2.33;1.23;;;;;;;;;;6156379;23;20177;-82
2021/03/13 08:23:19;;;;;;;3.77;1.20;;;;;;;;;;6157486;23;20228;-82
2021/03/13 08:25:52;;;;;;;1.77;0.87;;;;;;;;;;6157796;23;20173;-82
2021/03/13 08:28:33;;;;;;;0.87;0.87;;;;;;;;;;6157010;23;20197;-85
2021/03/13 08:31:14;;;;;;;0.93;0.70;;;;;;;;;;6130649;23;20224;-83
2021/03/13 08:33:41;;;;;;;1.47;0.90;;;;;;;;;;6156213;23;20209;-83
2021/03/13 08:36:15;;;;;;;1.50;0.67;;;;;;;;;;6158036;23;20566;-82
2021/03/13 08:38:54;;;;;;;3.00;0.90;;;;;;;;;;6157581;23;20180;-81
2021/03/13 08:41:38;;;;;;;1.93;1.00;;;;;;;;;;6157850;23;20173;-82
2021/03/13 08:44:04;;;;;;;1.23;0.80;;;;;;;;;;6157512;23;20228;-83
2021/03/13 08:46:41;;;;;;;2.63;0.80;;;;;;;;;;6157606;23;20193;-80
2021/03/13 08:49:08;;;;;;;1.93;0.90;;;;;;;;;;6132063;23;20176;-81
2021/03/13 08:51:34;;;;;;;1.77;0.70;;;;;;;;;;6157907;23;20441;-82
2021/03/13 08:54:01;;;;;;;3.63;0.80;;;;;;;;;;6157410;23;20173;-82
2021/03/13 08:56:37;;;;;;;3.37;1.00;;;;;;;;;;6157413;23;20177;-81
2021/03/13 08:59:10;;;;;;;1.90;0.97;;;;;;;;;;6157199;23;20177;-80
2021/03/13 09:01:36;;;;;;;2.13;0.80;;;;;;;;;;6157461;23;20184;-81
2021/03/13 09:04:02;;;;;;;1.70;0.80;;;;;;;;;;6157576;23;20184;-82
2021/03/13 09:06:29;;;;;;;1.77;0.90;;;;;;;;;;6157385;23;20204;-82
2021/03/13 09:09:07;;;;;;;2.53;1.00;;;;;;;;;;6131636;23;20173;-81
2021/03/13 09:11:33;;;;;;;1.73;0.80;;;;;;;;;;6157694;23;20173;-81
2021/03/13 09:13:59;;;;;;;1.93;0.80;;;;;;;;;;6156913;23;20205;-82
2021/03/13 09:16:25;;;;;;;1.87;0.87;;;;;;;;;;6157261;23;20177;-82
2021/03/13 09:18:52;;;;;;;1.63;0.83;;;;;;;;;;6157706;23;20432;-81
2021/03/13 09:21:39;;;;;;;1.50;0.90;;;;;;;;;;6157298;23;20181;-80
2021/03/13 09:24:06;;;;;;;1.90;0.87;;;;;;;;;;6157560;23;20173;-80
2021/03/13 09:26:32;;;;;;;2.00;1.07;;;;;;;;;;6133347;23;20165;-80
2021/03/13 09:28:58;;;;;;;0.87;0.60;;;;;;;;;;6133772;23;20178;-80
2021/03/13 09:31:25;;;;;;;0.73;0.73;;;;;;;;;;6104735;23;20166;-81
2021/03/13 09:33:51;;;;;;;1.30;0.87;;;;;;;;;;6128001;23;20174;-80
2021/03/13 09:36:17;;;;;;;0.60;0.57;;;;;;;;;;6103132;23;20484;-80
2021/03/13 09:38:54;;;;;;;2.07;0.90;;;;;;;;;;6129855;23;20151;-80
2021/03/13 09:41:20;;;;;;;1.20;0.90;;;;;;;;;;6131089;23;20432;-81
2021/03/13 09:43:46;;;;;;;1.33;0.87;;;;;;;;;;6129491;23;20201;-80
2021/03/13 09:46:16;;;;;;;3.80;1.00;;;;;;;;;;6104735;23;20182;-81
2021/03/13 09:48:42;;;;;;;1.73;0.70;;;;;;;;;;6131022;23;20161;-82
2021/03/13 09:51:09;;;;;;;0.87;0.60;;;;;;;;;;6130461;23;20185;-80
2021/03/13 09:53:36;;;;;;;0.83;0.70;;;;;;;;;;6130757;23;20163;-82
2021/03/13 09:56:03;;;;;;;4.10;0.53;;;;;;;;;;6130750;23;20181;-82
2021/03/13 09:58:29;;;;;;;1.67;0.80;;;;;;;;;;6105646;23;20470;-84
2021/03/13 10:00:56;;;;;;;2.73;0.90;;;;;;;;;;6105280;23;20240;-82
2021/03/13 10:03:22;;;;;;;1.60;1.00;;;;;;;;;;6129820;23;20185;-82
2021/03/13 10:05:50;;;;;;;2.70;1.07;;;;;;;;;;6130541;23;20185;-81
2021/03/13 10:08:17;;;;;;;3.60;1.13;;;;;;;;;;6104567;23;20189;-83
2021/03/13 10:10:44;;;;;;;2.73;0.90;;;;;;;;;;6131195;23;20151;-81
2021/03/13 10:13:14;;;;;;;1.40;1.00;;;;;;;;;;6129196;23;20202;-83
2021/03/13 10:15:40;;;;;;;0.90;0.77;;;;;;;;;;6129862;23;20181;-82
2021/03/13 10:18:08;;;;;;;2.90;0.80;;;;;;;;;;6130294;23;20201;-83
2021/03/13 10:20:35;;;;;;;1.40;0.60;;;;;;;;;;6131180;23;20417;-81
2021/03/13 10:23:02;;;;;;;1.80;0.80;;;;;;;;;;6131667;23;20182;-81
2021/03/13 10:25:29;;;;;;;0.60;0.60;;;;;;;;;;6106074;23;20217;-82
2021/03/13 10:28:01;;;;;;;0.53;0.50;;;;;;;;;;6129730;23;20193;-82
2021/03/13 10:30:28;;;;;;;2.17;0.90;;;;;;;;;;6129219;23;20174;-83
2021/03/13 10:32:55;;;;;;;1.60;0.60;;;;;;;;;;6129358;23;20178;-81
2021/03/13 10:35:22;;;;;;;0.80;0.60;;;;;;;;;;6128714;23;20178;-80
2021/03/13 10:37:50;;;;;;;4.27;0.70;;;;;;;;;;6128657;23;20177;-82
2021/03/13 10:40:35;;;;;;;1.10;0.80;;;;;;;;;;6127867;23;20181;-82
2021/03/13 10:43:11;;;;;;;1.57;0.80;;;;;;;;;;6128987;23;20182;-82
2021/03/13 10:45:39;;;;;;;2.03;1.10;;;;;;;;;;6128979;23;20174;-81
2021/03/13 10:48:05;;;;;;;2.40;0.83;;;;;;;;;;6103051;23;20190;-83
2021/03/13 10:50:32;;;;;;;3.60;0.93;;;;;;;;;;6126937;23;20174;-83
2021/03/13 10:52:58;;;;;;;2.17;0.97;;;;;;;;;;6128855;23;20174;-84
2021/03/13 10:55:37;;;;;;;4.47;1.30;;;;;;;;;;6128395;23;20178;-83
2021/03/13 10:58:03;;;;;;;1.37;1.27;;;;;;;;;;6129843;23;20174;-84
2021/03/13 11:00:29;;;;;;;2.47;1.10;;;;;;;;;;6128794;23;20178;-84
2021/03/13 11:02:57;;;;;;;1.40;0.87;;;;;;;;;;6128920;23;20174;-82
2021/03/13 11:05:23;;;;;;;1.57;0.90;;;;;;;;;;6128021;23;20452;-84
2021/03/13 11:07:49;;;;;;;2.40;0.80;;;;;;;;;;6128929;23;20190;-83
2021/03/13 11:10:15;;;;;;;2.83;1.00;;;;;;;;;;6128446;23;20591;-83
2021/03/13 11:12:41;;;;;;;3.10;0.67;;;;;;;;;;6128588;23;20181;-83
2021/03/13 11:15:08;;;;;;;0.83;0.77;;;;;;;;;;6102615;23;20552;-82
2021/03/13 11:17:34;;;;;;;1.13;1.07;;;;;;;;;;6128766;23;20174;-82
2021/03/13 11:20:01;;;;;;;2.73;1.33;;;;;;;;;;6128328;23;20181;-82
2021/03/13 11:22:27;;;;;;;0.37;0.37;;;;;;;;;;6129031;23;20182;-82
2021/03/13 11:24:53;;;;;;;3.60;1.30;;;;;;;;;;6127694;23;20182;-82
2021/03/13 11:27:19;;;;;;;1.73;0.53;;;;;;;;;;6102556;23;20190;-79
2021/03/13 11:29:45;;;;;;;0.97;0.40;;;;;;;;;;6128395;23;20174;-82
2021/03/13 11:32:14;;;;;;;0.80;0.30;;;;;;;;;;6128603;23;20185;-83
2021/03/13 11:34:40;;;;;;;0.70;0.57;;;;;;;;;;6128374;23;20174;-82
2021/03/13 11:37:07;;;;;;;1.90;1.47;;;;;;;;;;6128529;23;20174;-82
2021/03/13 11:39:33;;;;;;;1.03;0.20;;;;;;;;;;6128440;23;20182;-82
2021/03/13 11:41:59;;;;;;;0.30;0.30;;;;;;;;;;6128490;23;20194;-83
2021/03/13 11:44:25;;;;;;;0.93;0.40;;;;;;;;;;6128549;23;20178;-81
2021/03/13 11:46:51;;;;;;;2.73;1.40;;;;;;;;;;6129819;23;20174;-82
2021/03/13 11:49:17;;;;;;;0.20;0.10;;;;;;;;;;6129846;23;20182;-80
2021/03/13 11:51:43;;;;;;;0.60;0.60;;;;;;;;;;6127859;23;20178;-82
2021/03/13 11:54:10;;;;;;;16.97;7.83;;;;;;;;;;6128540;23;20165;-79
2021/03/13 11:56:37;;;;;;;0.60;0.60;;;;;;;;;;6126577;23;20178;-86
2021/03/13 11:59:03;;;;;;;0.30;0.30;;;;;;;;;;6126894;23;20170;-83
2021/03/13 12:01:29;;;;;;;1.60;0.20;;;;;;;;;;6128021;23;20182;-80
2021/03/13 12:03:55;;;;;;;0.10;0.10;;;;;;;;;;6128200;23;20174;-82
2021/03/13 12:06:21;;;;;;;0.20;0.20;;;;;;;;;;6128080;23;20181;-83
2021/03/13 12:08:47;;;;;;;0.20;0.20;;;;;;;;;;6128667;23;20444;-86
2021/03/13 12:11:14;;;;;;;0.33;0.33;;;;;;;;;;6128220;23;20174;-84
2021/03/13 12:13:40;;;;;;;1.20;0.47;;;;;;;;;;6128488;23;20202;-79
2021/03/13 12:16:07;;;;;;;0.23;0.23;;;;;;;;;;6127829;23;20178;-87
2021/03/13 12:18:33;;;;;;;0.23;0.13;;;;;;;;;;6129189;23;20177;-84
2021/03/13 12:21:00;;;;;;;0.70;0.40;;;;;;;;;;6128581;23;20174;-89
2021/03/13 12:23:26;;;;;;;0.70;0.40;;;;;;;;;;6128286;23;20184;-86
2021/03/13 12:25:52;;;;;;;0.50;0.50;;;;;;;;;;6128359;23;20174;-85
2021/03/13 12:28:19;;;;;;;0.23;0.23;;;;;;;;;;6128788;23;20197;-86
2021/03/13 12:30:45;;;;;;;0.63;0.63;;;;;;;;;;6128754;23;20177;-87
2021/03/13 12:33:11;;;;;;;1.13;0.60;;;;;;;;;;6128573;23;20421;-83
2021/03/13 12:35:38;;;;;;;1.70;0.60;;;;;;;;;;6129086;23;20563;-80
2021/03/13 12:38:04;;;;;;;0.87;0.60;;;;;;;;;;6129498;23;20665;-84
2021/03/13 12:40:30;;;;;;;4.17;0.80;;;;;;;;;;6129850;23;20205;-85
2021/03/13 12:42:56;;;;;;;2.17;0.63;;;;;;;;;;6129030;23;20440;-88
2021/03/13 12:45:23;;;;;;;5.03;0.90;;;;;;;;;;6127838;23;20180;-87
2021/03/13 12:47:50;;;;;;;2.10;0.50;;;;;;;;;;6127210;23;20611;-85
2021/03/13 12:50:16;;;;;;;2.77;0.53;;;;;;;;;;6128931;23;20182;-81
2021/03/13 12:52:42;;;;;;;2.10;0.63;;;;;;;;;;6128346;23;20173;-79
2021/03/13 12:55:08;;;;;;;0.40;0.40;;;;;;;;;;6128970;23;20177;-85
2021/03/13 12:57:35;;;;;;;0.73;0.57;;;;;;;;;;6128202;23;20170;-81
2021/03/13 13:00:01;;;;;;;1.27;0.70;;;;;;;;;;6129473;23;20174;-89
2021/03/13 13:02:28;;;;;;;3.80;1.03;;;;;;;;;;6129595;23;20263;-89
2021/03/13 13:04:54;;;;;;;3.33;0.80;;;;;;;;;;6127934;23;20178;-90
2021/03/13 13:07:20;;;;;;;3.70;0.93;;;;;;;;;;6128271;23;20181;-80
2021/03/13 13:09:46;;;;;;;1.77;1.20;;;;;;;;;;6128309;23;20179;-78
2021/03/13 13:12:12;;;;;;;1.27;0.70;;;;;;;;;;6128786;23;20181;-91
2021/03/13 13:14:38;;;;;;;2.90;1.00;;;;;;;;;;6128749;23;20202;-80
2021/03/13 13:17:05;;;;;;;2.53;0.80;;;;;;;;;;6131135;23;20181;-88
2021/03/13 13:19:32;;;;;;;3.77;1.30;;;;;;;;;;6131247;23;20180;-93
2021/03/13 13:21:58;;;;;;;1.83;0.93;;;;;;;;;;6131945;23;20174;-90
2021/03/13 13:24:24;;;;;;;5.07;1.00;;;;;;;;;;6132544;23;20181;-93
2021/03/13 13:26:50;;;;;;;2.30;0.80;;;;;;;;;;6132412;23;20178;-87
2021/03/13 13:29:16;;;;;;;5.80;1.10;;;;;;;;;;6131275;23;20190;-92
2021/03/13 13:31:42;;;;;;;4.57;1.30;;;;;;;;;;6132679;23;20180;-90
2021/03/13 13:34:08;;;;;;;1.17;0.80;;;;;;;;;;6106113;23;20181;-90
2021/03/13 13:36:35;;;;;;;3.77;1.50;;;;;;;;;;6131763;23;20181;-90
2021/03/13 13:39:02;;;;;;;7.03;1.87;;;;;;;;;;6131093;23;20174;-91
2021/03/13 13:41:28;;;;;;;5.10;1.10;;;;;;;;;;6132988;23;20189;-92
2021/03/13 13:43:55;;;;;;;3.67;1.30;;;;;;;;;;6134268;23;20174;-86
2021/03/13 13:46:21;;;;;;;4.63;1.30;;;;;;;;;;6140931;23;20585;-81
2021/03/13 13:48:47;;;;;;;5.10;1.53;;;;;;;;;;6136422;23;20190;-93
2021/03/13 13:51:13;;;;;;;4.13;0.90;;;;;;;;;;6135619;23;20174;-92
2021/03/13 13:53:40;;;;;;;4.37;1.30;;;;;;;;;;6133295;23;20444;-82
2021/03/13 13:56:06;;;;;;;3.00;0.93;;;;;;;;;;6108299;23;20436;-82
2021/03/13 13:58:32;;;;;;;4.03;1.10;;;;;;;;;;6130545;23;20547;-93
2021/03/13 14:00:59;;;;;;;2.80;1.13;;;;;;;;;;6129064;23;20182;-83
2021/03/13 14:03:25;;;;;;;3.40;1.40;;;;;;;;;;6129656;23;20174;-92
2021/03/13 14:05:51;;;;;;;4.17;1.23;;;;;;;;;;6128470;23;20730;-84
2021/03/13 14:08:17;;;;;;;2.57;1.13;;;;;;;;;;6103525;23;20621;-82
2021/03/13 14:10:44;;;;;;;2.57;1.23;;;;;;;;;;6103683;23;20405;-84
2021/03/13 14:13:10;;;;;;;2.37;1.27;;;;;;;;;;6129179;23;20597;-82
2021/03/13 14:15:36;;;;;;;3.20;1.20;;;;;;;;;;6129301;23;20178;-81
2021/03/13 14:18:02;;;;;;;1.47;0.97;;;;;;;;;;6129337;23;20225;-81
2021/03/13 14:20:28;;;;;;;4.30;1.40;;;;;;;;;;6128520;23;20217;-84
2021/03/13 14:22:55;;;;;;;3.03;0.90;;;;;;;;;;6129841;23;20181;-83
2021/03/13 14:25:21;;;;;;;2.33;1.17;;;;;;;;;;6127070;23;20174;-81
2021/03/13 14:27:49;;;;;;;3.50;1.30;;;;;;;;;;6129001;23;20572;-83
2021/03/13 14:30:16;;;;;;;1.03;0.87;;;;;;;;;;6127758;23;20181;-83
2021/03/13 14:32:42;;;;;;;3.13;1.30;;;;;;;;;;6128604;23;20181;-83
2021/03/13 14:35:10;;;;;;;3.47;1.10;;;;;;;;;;6127024;23;20178;-83
2021/03/13 14:37:36;;;;;;;1.90;1.20;;;;;;;;;;6128274;23;20181;-83
2021/03/13 14:40:03;;;;;;;2.27;1.00;;;;;;;;;;6127751;23;20181;-83
2021/03/13 14:42:29;;;;;;;1.93;1.00;;;;;;;;;;6128321;23;20185;-83
2021/03/13 14:44:56;;;;;;;3.20;1.10;;;;;;;;;;6127457;23;20178;-82